Time;durP1;ratioP1;P1;durP2;ratioP2;P2;SDS_P1;SDS_P2;PMS_P1;PMS_P2;Temp;Humidity;BMP_temperature;BMP_pressure;BME280_temperature;BME280_humidity;BME280_pressure;Samples;Min_cycle;Max_cycle;Signal;HPM_P1;HPM_P2
2022/05/20 00:00:12;;;;;;;8.48;5.65;;;19.10;99.90;;;;;;5052557;28;20033;-45
2022/05/20 00:02:38;;;;;;;8.00;5.80;;;19.10;99.90;;;;;;5051851;28;20029;-46
2022/05/20 00:05:04;;;;;;;6.93;5.70;;;19.20;99.90;;;;;;5053087;28;20023;-45
2022/05/20 00:07:29;;;;;;;7.10;5.85;;;19.20;99.90;;;;;;5052689;28;20029;-40
2022/05/20 00:09:55;;;;;;;7.88;6.45;;;19.20;99.90;;;;;;5053142;28;20036;-45
2022/05/20 00:12:21;;;;;;;8.50;5.80;;;19.20;99.90;;;;;;5053412;28;20032;-47
2022/05/20 00:14:46;;;;;;;7.68;6.93;;;19.20;99.90;;;;;;5053545;28;20025;-46
2022/05/20 00:17:12;;;;;;;6.57;5.97;;;19.20;99.90;;;;;;5053106;28;20029;-45
2022/05/20 00:19:38;;;;;;;10.32;6.68;;;19.20;99.90;;;;;;5052591;28;20032;-45
2022/05/20 00:22:05;;;;;;;7.10;5.38;;;19.20;99.90;;;;;;5052638;28;20039;-44
2022/05/20 00:24:31;;;;;;;7.97;5.68;;;19.20;99.90;;;;;;5052528;28;20498;-48
2022/05/20 00:26:56;;;;;;;13.55;5.63;;;19.20;99.90;;;;;;5052093;28;20117;-40
2022/05/20 00:29:22;;;;;;;7.80;5.43;;;19.20;99.90;;;;;;5052302;28;20034;-48
2022/05/20 00:31:48;;;;;;;8.77;5.88;;;19.20;99.90;;;;;;5052056;28;20396;-49
2022/05/20 00:34:14;;;;;;;6.95;6.25;;;19.30;99.90;;;;;;5052250;28;20028;-47
2022/05/20 00:36:39;;;;;;;10.30;5.60;;;19.30;99.90;;;;;;5052311;28;20025;-43
2022/05/20 00:39:05;;;;;;;8.15;5.43;;;19.20;99.90;;;;;;5051776;28;20039;-48
2022/05/20 00:41:30;;;;;;;9.23;6.03;;;19.20;99.90;;;;;;5052017;28;20040;-46
2022/05/20 00:43:56;;;;;;;10.95;6.70;;;19.20;99.90;;;;;;5050777;28;20467;-45
2022/05/20 00:46:24;;;;;;;10.98;6.78;;;19.30;99.90;;;;;;5051956;28;20029;-47
2022/05/20 00:48:58;;;;;;;10.48;6.20;;;19.30;99.90;;;;;;5051613;28;20037;-47
2022/05/20 00:51:29;;;;;;;12.43;6.40;;;19.20;99.90;;;;;;5051794;28;20064;-51
2022/05/20 00:54:10;;;;;;;9.98;6.50;;;19.20;99.90;;;;;;5051872;28;20033;-47
2022/05/20 00:56:43;;;;;;;10.10;7.18;;;19.10;99.90;;;;;;5051765;28;20029;-45
2022/05/20 00:59:15;;;;;;;10.70;6.95;;;19.10;99.90;;;;;;5051565;28;20029;-41
2022/05/20 01:01:41;;;;;;;10.20;7.60;;;19.00;99.90;;;;;;5051755;28;20079;-50
2022/05/20 01:04:07;;;;;;;11.07;7.78;;;19.00;99.90;;;;;;5051644;28;20484;-49
2022/05/20 01:06:32;;;;;;;13.68;7.45;;;19.00;99.90;;;;;;5051405;28;20393;-50
2022/05/20 01:08:58;;;;;;;9.57;7.65;;;18.90;99.90;;;;;;5051417;28;20481;-48
2022/05/20 01:11:25;;;;;;;9.50;8.10;;;18.90;99.90;;;;;;5051404;28;20090;-46
2022/05/20 01:13:52;;;;;;;14.98;8.70;;;19.00;99.90;;;;;;5051290;28;20078;-49
2022/05/20 01:16:17;;;;;;;19.95;9.77;;;19.00;99.90;;;;;;5051678;28;20087;-46
2022/05/20 01:18:46;;;;;;;10.25;8.45;;;18.90;99.90;;;;;;5051591;28;20033;-47
2022/05/20 01:21:13;;;;;;;19.23;9.93;;;18.90;99.90;;;;;;5051347;28;20024;-45
2022/05/20 01:23:39;;;;;;;17.55;9.23;;;19.00;99.90;;;;;;5051420;28;20021;-45
2022/05/20 01:26:06;;;;;;;14.68;8.68;;;18.90;99.90;;;;;;5051372;28;20021;-45
2022/05/20 01:28:32;;;;;;;14.45;8.93;;;18.90;99.90;;;;;;5051274;28;20219;-45
2022/05/20 01:31:02;;;;;;;12.57;8.60;;;18.80;99.90;;;;;;5051413;28;20025;-49
2022/05/20 01:33:32;;;;;;;14.48;7.80;;;18.80;99.90;;;;;;5051622;28;20037;-46
2022/05/20 01:35:59;;;;;;;14.95;7.95;;;18.70;99.90;;;;;;5051382;28;20033;-46
2022/05/20 01:38:25;;;;;;;15.23;8.07;;;18.70;99.90;;;;;;5051234;28;20033;-45
2022/05/20 01:41:04;;;;;;;15.98;8.50;;;18.80;99.90;;;;;;5051337;28;20025;-46
2022/05/20 01:43:48;;;;;;;14.85;8.00;;;18.70;99.90;;;;;;5051361;28;20017;-44
2022/05/20 01:46:45;;;;;;;14.25;7.60;;;18.70;99.90;;;;;;5051207;28;20060;-46
2022/05/20 01:49:11;;;;;;;17.55;8.93;;;18.80;99.90;;;;;;5051106;28;20032;-42
2022/05/20 01:51:53;;;;;;;15.43;9.68;;;18.80;99.90;;;;;;5051075;28;20036;-45
2022/05/20 01:54:43;;;;;;;15.98;10.45;;;18.90;99.90;;;;;;5050938;28;20072;-46
2022/05/20 01:57:32;;;;;;;14.25;10.35;;;18.90;99.90;;;;;;5050890;28;20108;-47
2022/05/20 02:00:18;;;;;;;18.70;11.25;;;18.80;99.90;;;;;;5051273;28;20120;-43
2022/05/20 02:02:51;;;;;;;13.13;11.00;;;18.70;99.90;;;;;;5051076;28;20100;-46
2022/05/20 02:05:28;;;;;;;17.15;11.02;;;18.70;99.90;;;;;;5051185;28;20031;-39
2022/05/20 02:07:58;;;;;;;13.98;9.85;;;18.60;99.90;;;;;;5050877;28;20056;-45
2022/05/20 02:10:40;;;;;;;13.50;9.68;;;18.60;99.90;;;;;;5051227;28;20021;-44
2022/05/20 02:13:09;;;;;;;20.55;11.40;;;18.50;99.90;;;;;;5049831;28;20033;-44
2022/05/20 02:15:53;;;;;;;13.55;10.60;;;18.50;99.90;;;;;;5050861;28;20044;-39
2022/05/20 02:18:25;;;;;;;18.33;11.25;;;18.50;99.90;;;;;;5050707;28;20072;-46
2022/05/20 02:20:56;;;;;;;27.85;11.70;;;18.50;99.90;;;;;;5049626;28;20504;-44
2022/05/20 02:23:25;;;;;;;14.50;10.70;;;18.50;99.90;;;;;;5051656;28;20064;-44
2022/05/20 02:25:57;;;;;;;16.48;11.52;;;18.50;99.90;;;;;;5054635;28;20024;-48
2022/05/20 02:28:30;;;;;;;18.20;12.07;;;18.50;99.90;;;;;;5054338;28;20032;-47
2022/05/20 02:30:58;;;;;;;18.88;12.05;;;18.40;99.90;;;;;;5054476;28;20072;-46
2022/05/20 02:33:25;;;;;;;17.30;12.68;;;18.50;99.90;;;;;;5054966;28;20021;-45
2022/05/20 02:35:59;;;;;;;20.50;12.35;;;18.50;99.90;;;;;;5054741;28;20021;-46
2022/05/20 02:38:25;;;;;;;17.00;13.65;;;18.50;99.90;;;;;;5054308;28;20029;-48
2022/05/20 02:40:52;;;;;;;19.55;13.60;;;18.40;99.90;;;;;;5054383;28;20028;-45
2022/05/20 02:43:18;;;;;;;23.33;13.45;;;18.20;99.90;;;;;;5054616;28;20079;-50
2022/05/20 02:45:46;;;;;;;20.55;13.20;;;18.20;99.90;;;;;;5054345;28;20040;-41
2022/05/20 02:48:13;;;;;;;16.38;12.05;;;18.10;99.90;;;;;;5053914;28;20542;-40
2022/05/20 02:50:38;;;;;;;19.35;13.27;;;18.10;99.90;;;;;;5054141;28;20028;-46
2022/05/20 02:53:04;;;;;;;15.30;12.95;;;18.10;99.90;;;;;;5054021;28;20041;-45
2022/05/20 02:55:30;;;;;;;21.08;13.27;;;18.20;99.90;;;;;;5053884;28;20112;-44
2022/05/20 02:57:55;;;;;;;19.23;13.90;;;18.30;99.90;;;;;;5053634;28;20033;-45
2022/05/20 03:05:51;;;;;;;23.25;15.02;;;18.20;99.90;;;;;;5054205;28;20122;-46
2022/05/20 03:08:16;;;;;;;20.67;14.45;;;18.20;99.90;;;;;;5053587;28;20392;-45
2022/05/20 03:10:42;;;;;;;15.27;12.68;;;18.10;99.90;;;;;;5053813;28;20028;-46
2022/05/20 03:13:07;;;;;;;20.25;12.48;;;18.00;99.90;;;;;;5053914;28;20428;-46
2022/05/20 03:15:35;;;;;;;15.23;11.20;;;18.00;99.90;;;;;;5053677;28;20112;-51
2022/05/20 03:18:00;;;;;;;16.95;11.30;;;17.90;99.90;;;;;;5053930;28;20036;-45
2022/05/20 03:20:26;;;;;;;17.90;11.77;;;17.90;99.90;;;;;;5054297;28;20103;-45
2022/05/20 03:22:51;;;;;;;15.98;12.43;;;17.90;99.90;;;;;;5054078;28;20017;-45
2022/05/20 03:25:17;;;;;;;16.15;12.02;;;18.00;99.90;;;;;;5054040;28;20448;-47
2022/05/20 03:27:43;;;;;;;19.05;12.60;;;18.10;99.90;;;;;;5053329;28;20035;-41
2022/05/20 03:30:10;;;;;;;12.60;11.27;;;18.10;99.90;;;;;;5053636;28;20017;-47
2022/05/20 03:32:37;;;;;;;14.32;11.73;;;18.10;99.90;;;;;;5052255;28;20032;-49
2022/05/20 03:35:04;;;;;;;16.73;11.30;;;18.10;99.90;;;;;;5052479;28;20025;-46
2022/05/20 03:37:30;;;;;;;14.88;11.25;;;18.10;99.90;;;;;;5052875;28;20104;-42
2022/05/20 03:39:55;;;;;;;15.52;12.20;;;18.10;99.90;;;;;;5053286;28;20117;-46
2022/05/20 03:42:25;;;;;;;19.45;12.93;;;18.00;99.90;;;;;;5053259;28;20049;-47
2022/05/20 03:44:51;;;;;;;14.20;11.52;;;18.00;99.90;;;;;;5051892;28;20021;-45
2022/05/20 03:47:17;;;;;;;17.40;12.32;;;18.00;99.90;;;;;;5052992;28;20404;-46
2022/05/20 03:49:43;;;;;;;17.45;12.70;;;17.90;99.90;;;;;;5053476;28;20032;-47
2022/05/20 03:52:10;;;;;;;19.02;14.75;;;17.80;99.90;;;;;;5053487;28;20033;-43
2022/05/20 03:54:36;;;;;;;17.33;14.32;;;17.80;99.90;;;;;;5053762;28;20039;-46
2022/05/20 03:57:02;;;;;;;18.40;15.23;;;17.80;99.90;;;;;;5052785;28;20025;-45
2022/05/20 03:59:29;;;;;;;22.58;15.90;;;17.80;99.90;;;;;;5053129;28;20033;-47
2022/05/20 04:01:58;;;;;;;18.55;16.08;;;17.70;99.90;;;;;;5052945;28;20029;-51
2022/05/20 04:04:39;;;;;;;24.58;15.48;;;17.70;99.90;;;;;;5053085;28;20098;-48
2022/05/20 04:07:14;;;;;;;21.90;15.43;;;17.80;99.90;;;;;;5052460;28;20052;-47
2022/05/20 04:09:41;;;;;;;24.33;17.23;;;17.80;99.90;;;;;;5052869;28;20107;-48
2022/05/20 04:12:15;;;;;;;25.85;17.95;;;17.80;99.90;;;;;;5052760;28;20031;-45
2022/05/20 04:14:41;;;;;;;26.20;18.33;;;17.70;99.90;;;;;;5052683;28;20107;-40
2022/05/20 04:17:08;;;;;;;24.10;19.10;;;17.70;99.90;;;;;;5052204;28;20346;-48
2022/05/20 04:19:34;;;;;;;26.35;19.80;;;17.60;99.90;;;;;;5052584;28;20031;-47
2022/05/20 04:22:08;;;;;;;25.52;18.50;;;17.60;99.90;;;;;;5052432;28;20013;-48
2022/05/20 04:24:34;;;;;;;25.13;19.40;;;17.60;99.90;;;;;;5052474;28;20082;-50
2022/05/20 04:27:00;;;;;;;28.80;21.05;;;17.50;99.90;;;;;;5052113;28;20021;-42
2022/05/20 04:29:26;;;;;;;24.10;19.95;;;17.60;99.90;;;;;;5052342;28;20029;-47
2022/05/20 04:31:52;;;;;;;23.75;19.48;;;17.60;99.90;;;;;;5052257;28;20059;-46
2022/05/20 04:34:18;;;;;;;26.35;19.63;;;17.60;99.90;;;;;;5052234;28;20025;-45
2022/05/20 04:36:44;;;;;;;22.90;19.52;;;17.60;99.90;;;;;;5052087;28;20037;-49
2022/05/20 04:39:10;;;;;;;20.13;16.35;;;17.60;99.90;;;;;;5052082;28;20029;-46
2022/05/20 04:47:14;;;;;;;18.45;16.42;;;17.60;99.90;;;;;;5052097;28;20051;-46
2022/05/20 04:49:40;;;;;;;;;;;17.60;99.90;;;;;;5052457;28;20091;-39
2022/05/20 04:52:06;;;;;;;26.10;13.55;;;17.60;99.90;;;;;;5081659;22;19920;-45
2022/05/20 04:54:50;;;;;;;17.75;13.95;;;17.60;99.90;;;;;;5072028;28;20049;-45
2022/05/20 04:57:30;;;;;;;19.98;14.80;;;17.60;99.90;;;;;;5072399;28;20017;-46
2022/05/20 05:00:20;;;;;;;20.33;17.15;;;17.50;99.90;;;;;;5073051;28;20444;-44
2022/05/20 05:02:46;;;;;;;25.00;19.85;;;17.60;99.90;;;;;;5069331;28;20047;-47
2022/05/20 05:05:14;;;;;;;23.83;19.35;;;17.70;99.90;;;;;;5072429;28;20021;-45
2022/05/20 05:07:43;;;;;;;25.27;19.50;;;17.70;99.90;;;;;;5071800;28;20024;-45
2022/05/20 05:10:10;;;;;;;31.77;20.42;;;17.70;99.90;;;;;;5072307;28;20373;-45
2022/05/20 05:12:36;;;;;;;25.58;21.20;;;17.60;99.90;;;;;;5072060;28;20027;-46
2022/05/20 05:15:03;;;;;;;27.23;21.42;;;17.60;99.90;;;;;;5072277;28;20155;-46
2022/05/20 05:20:16;;;;;;;22.52;19.83;;;17.60;99.90;;;;;;5072607;28;20400;-45
2022/05/20 05:22:42;;;;;;;26.17;19.88;;;17.70;99.90;;;;;;5072114;28;20020;-44
2022/05/20 05:25:10;;;;;;;25.63;20.45;;;17.80;99.90;;;;;;5072212;28;20081;-43
2022/05/20 05:27:35;;;;;;;24.63;19.50;;;17.90;99.90;;;;;;5070671;28;20103;-45
2022/05/20 05:30:01;;;;;;;22.10;18.13;;;17.90;99.90;;;;;;5071958;28;20107;-46
2022/05/20 05:32:27;;;;;;;23.33;17.63;;;18.00;99.90;;;;;;5071844;28;20025;-49
2022/05/20 05:34:52;;;;;;;24.98;18.17;;;18.00;99.90;;;;;;5072110;28;20025;-44
2022/05/20 05:37:18;;;;;;;22.13;17.98;;;18.10;99.90;;;;;;5072081;28;20028;-44
2022/05/20 05:39:43;;;;;;;20.83;17.90;;;18.20;99.90;;;;;;5072742;28;20034;-43
2022/05/20 05:42:09;;;;;;;19.75;16.75;;;18.30;99.90;;;;;;5072193;28;20060;-44
2022/05/20 05:44:34;;;;;;;18.40;14.77;;;18.40;99.90;;;;;;5072247;28;20036;-43
2022/05/20 05:47:00;;;;;;;19.48;15.50;;;18.50;99.90;;;;;;5071632;28;20025;-44
2022/05/20 05:49:26;;;;;;;21.38;16.92;;;18.60;99.90;;;;;;5067903;28;20036;-46
2022/05/20 05:51:53;;;;;;;19.05;15.18;;;18.80;99.90;;;;;;5071374;28;20104;-45
2022/05/20 05:54:18;;;;;;;19.50;15.93;;;18.90;99.90;;;;;;5068679;28;20027;-44
2022/05/20 05:56:44;;;;;;;21.35;16.15;;;19.00;99.90;;;;;;5071963;28;20132;-45
2022/05/20 05:59:09;;;;;;;17.52;15.23;;;19.20;99.90;;;;;;5072861;28;20153;-44
2022/05/20 06:01:35;;;;;;;18.13;14.13;;;19.30;99.90;;;;;;5073766;28;20020;-44
2022/05/20 06:04:00;;;;;;;18.27;13.13;;;19.70;99.90;;;;;;5075295;28;20024;-47
2022/05/20 06:06:26;;;;;;;18.50;12.10;;;20.30;99.90;;;;;;5071988;28;20400;-47
2022/05/20 06:08:52;;;;;;;16.27;11.43;;;20.90;99.90;;;;;;5064310;28;20040;-51
2022/05/20 06:11:17;;;;;;;18.02;13.20;;;21.60;99.90;;;;;;5074727;28;20059;-49
2022/05/20 06:13:43;;;;;;;14.60;12.60;;;21.70;99.90;;;;;;5070180;28;20029;-46
2022/05/20 06:16:09;;;;;;;16.42;12.63;;;21.60;99.90;;;;;;5057100;28;20067;-57
2022/05/20 06:18:34;;;;;;;17.27;11.70;;;21.70;99.90;;;;;;5055005;28;20112;-50
2022/05/20 06:21:00;;;;;;;13.63;11.38;;;22.00;99.90;;;;;;5073550;28;20031;-57
2022/05/20 06:23:26;;;;;;;16.40;11.30;;;22.50;99.90;;;;;;5069394;28;20032;-50
2022/05/20 06:25:52;;;;;;;14.73;12.30;;;22.80;99.90;;;;;;5070086;28;20021;-50
2022/05/20 06:28:19;;;;;;;13.93;12.52;;;22.80;99.90;;;;;;5069583;28;20101;-46
2022/05/20 06:30:45;;;;;;;14.15;12.60;;;22.60;99.90;;;;;;5070108;28;20028;-48
2022/05/20 06:33:12;;;;;;;20.35;11.10;;;22.30;99.90;;;;;;5063076;28;20020;-48
2022/05/20 06:41:06;;;;;;;14.00;10.93;;;22.30;99.90;;;;;;5062842;28;20840;-48
2022/05/20 06:43:33;;;;;;;15.00;10.48;;;23.20;99.90;;;;;;5068307;28;20103;-47
2022/05/20 06:46:01;;;;;;;18.00;10.65;;;24.20;99.90;;;;;;5062628;28;20495;-51
2022/05/20 06:48:37;;;;;;;11.55;9.95;;;24.70;99.90;;;;;;5062075;28;20074;-47
2022/05/20 06:51:07;;;;;;;13.48;10.57;;;24.30;99.90;;;;;;5065359;28;20033;-51
2022/05/20 06:53:32;;;;;;;10.70;9.68;;;24.60;99.90;;;;;;5073927;28;20107;-47
2022/05/20 06:55:58;;;;;;;15.68;10.85;;;24.80;99.90;;;;;;5055549;28;20111;-52
2022/05/20 06:58:24;;;;;;;16.50;10.65;;;24.80;99.90;;;;;;5054067;28;20071;-54
2022/05/20 07:00:49;;;;;;;17.15;11.25;;;25.20;99.90;;;;;;5062368;28;20024;-50
2022/05/20 07:03:19;;;;;;;14.52;10.65;;;25.50;99.90;;;;;;5074057;28;20023;-48
2022/05/20 07:05:45;;;;;;;12.35;10.68;;;25.50;99.90;;;;;;5069311;28;20009;-48
2022/05/20 07:08:10;;;;;;;15.48;10.93;;;25.30;99.90;;;;;;5072734;28;20033;-48
2022/05/20 07:10:35;;;;;;;13.20;11.27;;;24.60;99.90;;;;;;5057234;28;20040;-48
2022/05/20 07:13:01;;;;;;;12.02;10.82;;;24.40;99.90;;;;;;5054534;28;20037;-48
2022/05/20 07:15:27;;;;;;;16.08;11.95;;;24.00;99.90;;;;;;5053912;28;20024;-47
2022/05/20 07:17:52;;;;;;;14.52;12.20;;;23.40;99.90;;;;;;5053371;28;20025;-48
2022/05/20 07:20:18;;;;;;;19.10;13.20;;;23.20;99.90;;;;;;5053967;28;20021;-52
2022/05/20 07:22:43;;;;;;;14.93;12.35;;;23.00;99.90;;;;;;5064704;28;20025;-45
2022/05/20 07:25:10;;;;;;;13.25;11.90;;;23.10;99.90;;;;;;5073473;28;20028;-49
2022/05/20 07:27:35;;;;;;;17.10;12.07;;;23.50;99.90;;;;;;5061273;28;20404;-52
2022/05/20 07:30:01;;;;;;;21.85;12.23;;;24.10;99.90;;;;;;5053912;28;20025;-50
2022/05/20 07:32:26;;;;;;;17.13;11.43;;;24.40;99.90;;;;;;5059210;28;20028;-46
2022/05/20 07:34:52;;;;;;;13.13;11.85;;;24.40;99.90;;;;;;5072712;28;20434;-43
2022/05/20 07:37:17;;;;;;;16.75;12.52;;;24.20;99.90;;;;;;5068905;28;20248;-47
2022/05/20 07:39:43;;;;;;;13.73;11.10;;;24.40;99.90;;;;;;5066291;28;20387;-44
2022/05/20 07:42:09;;;;;;;13.45;10.45;;;25.10;99.90;;;;;;5065048;28;20032;-44
2022/05/20 07:44:36;;;;;;;17.98;10.82;;;26.40;99.90;;;;;;5053697;28;20040;-43
2022/05/20 07:47:03;;;;;;;14.05;10.73;;;27.30;99.90;;;;;;5053713;28;20396;-45
2022/05/20 07:49:28;;;;;;;13.20;11.27;;;27.80;99.60;;;;;;5054227;28;20116;-44
2022/05/20 07:51:57;;;;;;;12.45;10.40;;;27.80;99.50;;;;;;5057204;28;20064;-50
2022/05/20 07:54:25;;;;;;;15.55;10.65;;;28.20;99.70;;;;;;5073791;28;20021;-45
2022/05/20 07:56:57;;;;;;;11.95;8.65;;;28.80;98.40;;;;;;5068262;28;20074;-45
2022/05/20 07:59:30;;;;;;;9.73;8.63;;;29.80;98.10;;;;;;5073840;28;20028;-50
2022/05/20 08:01:57;;;;;;;13.70;9.73;;;30.20;96.80;;;;;;5073674;28;20096;-48
2022/05/20 08:04:53;;;;;;;8.93;8.02;;;30.50;95.60;;;;;;5073393;28;20130;-49
2022/05/20 08:07:20;;;;;;;15.57;8.55;;;31.10;94.70;;;;;;5072577;28;20043;-46
2022/05/20 08:09:47;;;;;;;10.88;8.68;;;31.60;95.40;;;;;;5072304;28;20090;-45
2022/05/20 08:12:12;;;;;;;9.77;7.43;;;32.10;93.80;;;;;;5071314;28;20477;-47
2022/05/20 08:14:38;;;;;;;11.20;7.00;;;32.40;92.70;;;;;;5072820;28;20035;-46
2022/05/20 08:17:04;;;;;;;11.13;7.72;;;32.50;92.70;;;;;;5071027;28;20024;-45
2022/05/20 08:19:31;;;;;;;8.63;6.80;;;32.70;91.90;;;;;;5072644;28;20025;-49
2022/05/20 08:21:57;;;;;;;8.23;6.43;;;32.90;91.10;;;;;;5072107;28;20476;-45
2022/05/20 08:24:22;;;;;;;13.38;7.00;;;33.30;90.80;;;;;;5072262;28;20028;-48
2022/05/20 08:26:48;;;;;;;7.95;5.65;;;33.80;90.50;;;;;;5070891;28;20373;-44
2022/05/20 08:29:14;;;;;;;8.95;6.50;;;33.80;89.00;;;;;;5071183;28;20024;-48
2022/05/20 08:31:40;;;;;;;6.93;5.72;;;33.50;88.30;;;;;;5065584;28;20032;-58
2022/05/20 08:34:06;;;;;;;13.32;5.35;;;33.30;88.60;;;;;;5068378;28;20029;-52
2022/05/20 08:36:32;;;;;;;7.88;5.75;;;32.60;89.50;;;;;;5057292;28;20412;-54
2022/05/20 08:38:58;;;;;;;7.10;6.40;;;32.20;91.10;;;;;;5051289;28;20029;-53
2022/05/20 08:41:37;;;;;;;8.02;6.80;;;32.20;90.20;;;;;;5059672;28;20032;-50
2022/05/20 08:44:04;;;;;;;8.63;5.63;;;31.70;91.10;;;;;;5060926;28;20060;-44
2022/05/20 08:46:29;;;;;;;11.05;6.75;;;31.40;91.10;;;;;;5062378;28;20033;-44
2022/05/20 08:48:57;;;;;;;6.82;5.95;;;31.30;92.00;;;;;;5055039;28;20035;-46
2022/05/20 08:51:27;;;;;;;10.48;7.10;;;31.50;91.60;;;;;;5061664;28;20456;-48
2022/05/20 08:53:52;;;;;;;8.18;6.00;;;31.50;91.30;;;;;;5052072;28;20098;-46
2022/05/20 08:56:23;;;;;;;7.30;5.38;;;31.20;91.30;;;;;;5069432;28;20029;-47
2022/05/20 08:58:52;;;;;;;6.40;5.78;;;31.10;91.60;;;;;;5071792;28;20039;-46
2022/05/20 09:01:27;;;;;;;11.23;6.70;;;31.00;92.00;;;;;;5072419;28;20044;-46
2022/05/20 09:03:53;;;;;;;;;;;30.60;92.00;;;;;;5072804;28;20029;-44
2022/05/20 09:06:18;;;;;;;6.32;5.28;;;30.30;93.60;;;;;;5071824;28;19915;-46
2022/05/20 09:09:09;;;;;;;8.65;5.97;;;30.10;94.10;;;;;;5066433;28;20028;-43
2022/05/20 09:11:35;;;;;;;7.97;5.00;;;30.20;93.20;;;;;;5064005;28;20044;-51
2022/05/20 09:17:23;;;;;;;7.53;4.85;;;30.10;92.10;;;;;;5064406;28;20119;-43
2022/05/20 09:20:10;;;;;;;5.63;4.70;;;30.40;92.30;;;;;;5051752;28;20493;-45
2022/05/20 09:22:38;;;;;;;9.35;6.55;;;30.80;92.60;;;;;;5052135;28;20108;-47
2022/05/20 09:25:26;;;;;;;9.43;5.78;;;30.90;92.40;;;;;;5051671;28;20027;-44
2022/05/20 09:28:12;;;;;;;10.25;5.43;;;30.90;91.60;;;;;;5052194;28;20071;-43
2022/05/20 09:30:40;;;;;;;9.85;6.07;;;30.90;92.20;;;;;;5052248;28;20031;-42
2022/05/20 09:33:17;;;;;;;11.23;9.18;;;30.90;92.20;;;;;;5050926;28;20112;-45
2022/05/20 09:35:55;;;;;;;20.98;14.13;;;30.80;92.60;;;;;;5051379;28;20036;-44
2022/05/20 09:38:50;;;;;;;5.45;4.68;;;30.50;91.30;;;;;;5051450;28;20021;-48
2022/05/20 09:41:18;;;;;;;;;;;30.00;90.90;;;;;;5043648;28;20033;-46
2022/05/20 09:43:51;;;;;;;11.57;6.25;;;29.60;92.20;;;;;;5051384;28;19905;-46
2022/05/20 09:46:33;;;;;;;8.65;5.82;;;28.90;93.10;;;;;;5051741;28;20484;-47
2022/05/20 09:49:06;;;;;;;9.65;6.22;;;28.50;94.60;;;;;;5051532;28;20047;-43
2022/05/20 09:51:41;;;;;;;11.93;5.00;;;28.40;94.50;;;;;;5051357;28;20033;-45
2022/05/20 09:54:34;;;;;;;7.72;5.20;;;28.50;94.60;;;;;;5051895;28;20116;-43
2022/05/20 09:57:11;;;;;;;7.97;5.65;;;28.70;94.90;;;;;;5051359;28;20025;-45
2022/05/20 09:59:45;;;;;;;8.73;6.30;;;28.90;93.70;;;;;;5051442;28;20060;-43
2022/05/20 10:02:25;;;;;;;9.80;6.90;;;28.90;93.40;;;;;;5051473;28;20051;-43
2022/05/20 10:05:04;;;;;;;9.95;6.18;;;28.60;94.20;;;;;;5066768;28;20025;-44
2022/05/20 10:07:59;;;;;;;9.10;4.85;;;28.40;94.60;;;;;;5051163;28;20028;-47
2022/05/20 10:10:33;;;;;;;11.15;6.07;;;28.40;95.20;;;;;;5050234;28;20075;-42
2022/05/20 10:13:02;;;;;;;10.82;5.88;;;28.40;95.80;;;;;;5051556;28;20063;-44
2022/05/20 10:15:33;;;;;;;13.00;6.20;;;28.30;95.30;;;;;;5051265;28;20013;-44
2022/05/20 10:18:13;;;;;;;10.75;6.13;;;28.30;94.50;;;;;;5050918;28;20091;-42
2022/05/20 10:21:00;;;;;;;8.40;6.00;;;28.30;94.90;;;;;;5049675;28;20055;-43
2022/05/20 10:23:35;;;;;;;10.40;6.97;;;28.10;94.60;;;;;;5051185;28;20020;-46
2022/05/20 10:26:06;;;;;;;10.75;6.13;;;28.00;95.40;;;;;;5051816;28;20036;-43
2022/05/20 10:34:17;;;;;;;13.30;6.70;;;27.50;96.20;;;;;;5051293;28;20456;-48
2022/05/20 10:37:01;;;;;;;14.90;6.90;;;27.50;96.90;;;;;;5050533;28;20057;-46
2022/05/20 10:39:39;;;;;;;19.75;10.52;;;27.60;97.30;;;;;;5051885;28;20056;-44
2022/05/20 10:42:41;;;;;;;22.85;13.25;;;27.70;96.10;;;;;;5050740;28;20021;-45
2022/05/20 10:48:36;;;;;;;16.23;9.00;;;27.50;96.30;;;;;;5054419;28;20032;-42
2022/05/20 10:51:38;;;;;;;16.25;8.23;;;27.50;96.40;;;;;;5054637;28;20028;-43
2022/05/20 10:54:23;;;;;;;14.13;7.80;;;27.40;96.70;;;;;;5054063;28;20048;-44
2022/05/20 10:57:07;;;;;;;21.30;8.93;;;27.50;97.20;;;;;;5054022;28;20516;-47
2022/05/20 10:59:49;;;;;;;15.83;8.43;;;27.50;96.90;;;;;;5053523;28;20508;-42
2022/05/20 11:02:36;;;;;;;12.32;7.35;;;27.50;96.70;;;;;;5053407;28;20024;-43
2022/05/20 11:05:04;;;;;;;16.08;9.35;;;27.50;96.90;;;;;;5067583;28;20025;-43
2022/05/20 11:07:51;;;;;;;16.17;8.05;;;27.40;96.20;;;;;;5050293;28;20028;-48
2022/05/20 11:10:49;;;;;;;15.63;8.65;;;27.50;96.70;;;;;;5053265;28;20185;-42
2022/05/20 11:13:30;;;;;;;16.33;10.20;;;27.40;97.30;;;;;;5052118;28;20071;-44
2022/05/20 11:16:15;;;;;;;13.73;8.82;;;27.30;96.90;;;;;;5052156;28;20029;-45
2022/05/20 11:19:02;;;;;;;10.57;8.00;;;27.30;96.70;;;;;;5052094;28;20040;-45
2022/05/20 11:21:49;;;;;;;14.27;8.98;;;27.20;96.70;;;;;;5053103;28;20021;-43
2022/05/20 11:24:26;;;;;;;18.05;7.93;;;27.20;96.20;;;;;;5053481;28;20033;-42
2022/05/20 11:27:31;;;;;;;15.20;7.20;;;27.20;96.80;;;;;;5052931;28;20212;-47
2022/05/20 11:30:16;;;;;;;20.35;7.03;;;27.10;96.40;;;;;;5053500;28;20064;-43
2022/05/20 11:33:00;;;;;;;;;;;27.10;96.50;;;;;;5053890;28;20025;-45
2022/05/20 11:35:45;;;;;;;12.52;5.80;;;27.10;95.90;;;;;;5053378;28;19905;-43
2022/05/20 11:38:42;;;;;;;8.02;5.68;;;27.20;96.60;;;;;;5053299;28;20032;-43
2022/05/20 11:41:25;;;;;;;9.57;5.95;;;27.40;96.10;;;;;;5039524;28;20443;-46
2022/05/20 11:44:09;;;;;;;15.88;6.28;;;27.60;96.10;;;;;;5053341;28;20067;-46
2022/05/20 11:47:09;;;;;;;22.63;17.10;;;27.80;96.20;;;;;;5053299;28;20029;-44
2022/05/20 11:49:41;;;;;;;15.93;9.77;;;27.90;96.00;;;;;;5053133;28;20058;-44
2022/05/20 11:52:35;;;;;;;10.25;6.30;;;27.90;97.00;;;;;;5053350;28;20037;-42
2022/05/20 11:55:24;;;;;;;8.68;6.30;;;28.00;96.50;;;;;;5053434;28;20033;-42
2022/05/20 11:58:04;;;;;;;9.93;5.22;;;28.10;96.20;;;;;;5052039;28;20404;-42
2022/05/20 12:00:32;;;;;;;9.43;5.25;;;28.00;95.90;;;;;;5076724;22;20995;-46
2022/05/20 12:03:01;;;;;;;13.25;5.90;;;28.00;95.80;;;;;;5073475;28;20021;-44
2022/05/20 12:05:35;;;;;;;7.97;5.72;;;28.00;95.20;;;;;;5072840;28;20465;-45
2022/05/20 12:08:00;;;;;;;8.85;5.50;;;28.10;95.60;;;;;;5072423;28;20025;-40
2022/05/20 12:10:32;;;;;;;9.30;5.40;;;28.30;96.20;;;;;;5072545;28;20086;-45
2022/05/20 12:13:16;;;;;;;17.77;5.60;;;28.40;95.90;;;;;;5072653;28;20203;-47
2022/05/20 12:15:44;;;;;;;10.43;5.80;;;28.50;94.80;;;;;;5072465;28;20420;-45
2022/05/20 12:24:12;;;;;;;10.00;5.05;;;28.30;95.10;;;;;;5072677;28;20411;-49
2022/05/20 12:26:50;;;;;;;9.73;4.93;;;28.30;94.50;;;;;;5072311;28;20365;-44
2022/05/20 12:29:34;;;;;;;8.00;5.00;;;28.20;95.10;;;;;;5072300;28;20031;-45
2022/05/20 12:32:15;;;;;;;10.37;6.00;;;28.20;95.20;;;;;;5072574;28;20036;-45
2022/05/20 12:34:42;;;;;;;7.00;4.50;;;28.20;94.00;;;;;;5071788;28;20051;-46
2022/05/20 12:37:28;;;;;;;12.30;5.13;;;28.20;93.20;;;;;;5072180;28;20104;-43
2022/05/20 12:39:53;;;;;;;10.18;5.00;;;28.30;93.70;;;;;;5072849;28;20495;-45
2022/05/20 12:42:25;;;;;;;8.70;5.40;;;28.40;94.10;;;;;;5072806;28;20032;-44
2022/05/20 12:44:50;;;;;;;8.25;5.25;;;28.40;94.90;;;;;;5072699;28;20028;-40
2022/05/20 12:47:31;;;;;;;15.02;5.35;;;28.40;95.10;;;;;;5073350;28;20189;-44
2022/05/20 12:50:02;;;;;;;29.05;20.10;;;28.40;94.60;;;;;;5072163;28;20025;-45
2022/05/20 12:52:31;;;;;;;11.98;6.22;;;28.40;94.40;;;;;;5071880;28;20480;-45
2022/05/20 12:55:12;;;;;;;9.55;5.90;;;28.40;93.60;;;;;;5071800;28;20100;-41
2022/05/20 12:57:54;;;;;;;7.63;4.82;;;28.40;94.60;;;;;;5071298;28;20027;-39
2022/05/20 13:00:48;;;;;;;13.95;4.70;;;28.40;94.80;;;;;;5071565;28;20099;-44
2022/05/20 13:03:38;;;;;;;6.38;4.65;;;28.40;93.80;;;;;;5066733;28;20033;-40
2022/05/20 13:06:17;;;;;;;5.22;4.68;;;28.30;94.10;;;;;;5071859;28;20028;-42
2022/05/20 13:08:49;;;;;;;10.75;4.88;;;28.30;94.40;;;;;;5071711;28;20036;-41
2022/05/20 13:11:18;;;;;;;9.38;5.13;;;28.30;94.60;;;;;;5071928;28;20107;-42
2022/05/20 13:13:45;;;;;;;7.13;5.38;;;28.10;95.70;;;;;;5072306;28;20021;-40
2022/05/20 13:16:14;;;;;;;12.52;5.28;;;28.00;94.50;;;;;;5071854;28;20029;-41
2022/05/20 13:18:43;;;;;;;9.82;4.90;;;27.90;94.70;;;;;;5072138;28;20024;-41
2022/05/20 13:21:28;;;;;;;7.97;5.38;;;27.80;95.20;;;;;;5073028;28;20054;-40
2022/05/20 13:23:54;;;;;;;10.05;4.80;;;27.70;95.70;;;;;;5073095;28;20074;-40
2022/05/20 13:26:28;;;;;;;8.70;4.95;;;27.80;96.10;;;;;;5073085;28;20111;-41
2022/05/20 13:29:10;;;;;;;16.35;5.88;;;27.80;96.30;;;;;;5071288;28;20387;-42
2022/05/20 13:31:36;;;;;;;20.92;5.57;;;28.00;96.10;;;;;;5072243;28;20507;-42
2022/05/20 13:34:02;;;;;;;16.17;5.30;;;28.00;95.80;;;;;;5072143;28;20020;-48